createdAt,value
2017-06-14T00:00:47.727Z,0
2017-06-14T00:01:47.823Z,0
2017-06-14T00:02:48.027Z,0
2017-06-14T00:03:47.908Z,0
2017-06-14T00:04:47.901Z,0
2017-06-14T00:05:48.149Z,0
2017-06-14T00:06:47.959Z,0
2017-06-14T00:07:47.966Z,0
2017-06-14T00:08:48.024Z,0
2017-06-14T00:09:48.242Z,0
2017-06-14T00:10:48.093Z,0
2017-06-14T00:11:48.102Z,0
2017-06-14T00:12:48.200Z,0
2017-06-14T00:13:48.167Z,0
2017-06-14T00:14:48.206Z,0
2017-06-14T00:15:48.251Z,0
2017-06-14T00:16:48.289Z,0
2017-06-14T00:17:48.335Z,0
2017-06-14T00:18:48.293Z,0
2017-06-14T00:19:48.340Z,0
2017-06-14T00:20:48.456Z,0
2017-06-14T00:21:48.450Z,0
2017-06-14T00:22:48.504Z,0
2017-06-14T00:23:48.471Z,0
2017-06-14T00:24:48.548Z,0
2017-06-14T00:25:48.592Z,0
2017-06-14T00:26:48.644Z,0
2017-06-14T00:27:48.665Z,0
2017-06-14T00:28:48.669Z,0
2017-06-14T00:29:48.824Z,0
2017-06-14T00:30:48.790Z,0
2017-06-14T00:31:48.806Z,0
2017-06-14T00:32:48.854Z,0
2017-06-14T00:33:48.856Z,0
2017-06-14T00:34:48.926Z,0
2017-06-14T00:35:48.983Z,0
2017-06-14T00:36:48.933Z,0
2017-06-14T00:37:48.983Z,0
2017-06-14T00:38:49.025Z,0
2017-06-14T00:39:49.116Z,0
2017-06-14T00:40:49.131Z,0
2017-06-14T00:41:49.103Z,0
2017-06-14T00:42:49.150Z,0
2017-06-14T00:43:49.201Z,0
2017-06-14T00:44:49.259Z,0
2017-06-14T00:45:49.244Z,0
2017-06-14T00:46:49.359Z,0
2017-06-14T00:47:49.272Z,0
2017-06-14T00:48:49.344Z,0
2017-06-14T00:49:49.403Z,0
2017-06-14T00:50:49.393Z,0
2017-06-14T00:51:49.503Z,0
2017-06-14T00:52:49.551Z,0
2017-06-14T00:53:49.517Z,0
2017-06-14T00:54:49.512Z,0
2017-06-14T00:55:49.597Z,0
2017-06-14T00:56:49.596Z,0
2017-06-14T00:57:49.658Z,0
2017-06-14T00:58:49.672Z,0
2017-06-14T00:59:49.700Z,0
2017-06-14T01:01:21.582Z,0
2017-06-14T01:01:49.905Z,0
2017-06-14T01:02:50.026Z,0
2017-06-14T01:03:49.970Z,0
2017-06-14T01:04:50.019Z,0
2017-06-14T01:05:50.059Z,0
2017-06-14T01:06:50.079Z,0
2017-06-14T01:07:50.082Z,0
2017-06-14T01:08:50.127Z,0
2017-06-14T01:09:50.142Z,0
2017-06-14T01:10:50.184Z,0
2017-06-14T01:11:50.223Z,0
2017-06-14T01:12:50.252Z,0
2017-06-14T01:13:50.295Z,0
2017-06-14T01:14:50.352Z,0
2017-06-14T01:15:50.364Z,0
2017-06-14T01:16:50.418Z,0
2017-06-14T01:17:50.420Z,0
2017-06-14T01:18:50.433Z,0
2017-06-14T01:19:50.492Z,0
2017-06-14T01:20:50.508Z,0
2017-06-14T01:21:50.579Z,0
2017-06-14T01:22:50.584Z,0
2017-06-14T01:23:50.602Z,0
2017-06-14T01:24:50.797Z,0
2017-06-14T01:25:50.684Z,0
2017-06-14T01:26:50.696Z,0
2017-06-14T01:27:50.727Z,0
2017-06-14T01:28:50.823Z,0
2017-06-14T01:29:50.833Z,0
2017-06-14T01:30:50.846Z,0
2017-06-14T01:31:50.880Z,0
2017-06-14T01:32:50.977Z,0
2017-06-14T01:33:51.035Z,0
2017-06-14T01:34:50.991Z,0
2017-06-14T01:35:50.992Z,0
2017-06-14T01:36:51.039Z,0
2017-06-14T01:37:51.075Z,0
2017-06-14T01:38:51.127Z,0
2017-06-14T01:39:51.155Z,0
2017-06-14T01:40:51.210Z,0
2017-06-14T01:41:51.189Z,0
2017-06-14T01:42:51.257Z,0
2017-06-14T01:43:51.285Z,0
2017-06-14T01:44:51.340Z,0
2017-06-14T01:45:51.328Z,0
2017-06-14T01:46:51.403Z,0
2017-06-14T01:47:51.423Z,0
2017-06-14T01:48:51.437Z,0
2017-06-14T01:49:51.515Z,0
2017-06-14T01:50:51.521Z,0
2017-06-14T01:51:51.516Z,0
2017-06-14T01:52:51.617Z,0
2017-06-14T01:53:51.624Z,0
2017-06-14T01:54:51.655Z,0
2017-06-14T01:55:51.731Z,0
2017-06-14T01:56:51.699Z,0
2017-06-14T01:57:51.725Z,0
2017-06-14T01:58:51.795Z,0
2017-06-14T01:59:51.791Z,0
2017-06-14T02:00:51.882Z,0
2017-06-14T02:01:51.881Z,0
2017-06-14T02:02:52.080Z,0
2017-06-14T02:03:51.927Z,0
2017-06-14T02:04:52.017Z,0
2017-06-14T02:05:52.057Z,0
2017-06-14T02:06:52.057Z,0
2017-06-14T02:07:52.077Z,0
2017-06-14T02:08:52.092Z,0
2017-06-14T02:09:52.147Z,0
2017-06-14T02:10:52.189Z,0
2017-06-14T02:11:52.182Z,0
2017-06-14T02:12:52.230Z,0
2017-06-14T02:13:52.287Z,0
2017-06-14T02:14:52.279Z,0
2017-06-14T02:15:52.376Z,0
2017-06-14T02:16:52.368Z,0
2017-06-14T02:17:52.428Z,0
2017-06-14T02:18:52.455Z,0
2017-06-14T02:19:52.457Z,0
2017-06-14T02:20:52.487Z,0
2017-06-14T02:21:52.532Z,0
2017-06-14T02:22:52.537Z,0
2017-06-14T02:23:52.589Z,0
2017-06-14T02:24:52.603Z,0
2017-06-14T02:25:52.622Z,0
2017-06-14T02:26:52.701Z,0
2017-06-14T02:27:52.703Z,0
2017-06-14T02:28:52.746Z,0
2017-06-14T02:29:52.839Z,0
2017-06-14T02:30:52.837Z,0
2017-06-14T02:31:52.847Z,0
2017-06-14T02:32:52.881Z,0
2017-06-14T02:33:52.835Z,0
2017-06-14T02:34:52.871Z,0
2017-06-14T02:35:52.876Z,0
2017-06-14T02:36:52.916Z,5
2017-06-14T02:37:52.934Z,5
2017-06-14T02:38:53.003Z,5
2017-06-14T02:39:52.973Z,5
2017-06-14T02:40:53.063Z,5
2017-06-14T02:41:53.094Z,5
2017-06-14T02:42:53.074Z,5
2017-06-14T02:43:53.157Z,5
2017-06-14T02:44:53.172Z,5
2017-06-14T02:45:53.196Z,5
2017-06-14T02:46:53.254Z,10
2017-06-14T02:47:53.212Z,10
2017-06-14T02:48:53.296Z,10
2017-06-14T02:49:53.321Z,10
2017-06-14T02:50:53.345Z,10
2017-06-14T02:51:53.425Z,10
2017-06-14T02:52:53.447Z,10
2017-06-14T02:53:53.513Z,15
2017-06-14T02:54:53.523Z,15
2017-06-14T02:55:53.554Z,15
2017-06-14T02:56:53.593Z,15
2017-06-14T02:57:53.584Z,15
2017-06-14T02:58:53.594Z,20
2017-06-14T02:59:53.654Z,20
2017-06-14T03:00:53.676Z,20
2017-06-14T03:01:53.755Z,20
2017-06-14T03:02:53.788Z,20
2017-06-14T03:04:00.957Z,25
2017-06-14T03:04:53.847Z,25
2017-06-14T03:05:53.818Z,25
2017-06-14T03:06:53.840Z,25
2017-06-14T03:07:54.015Z,25
2017-06-14T03:08:54.054Z,30
2017-06-14T03:09:54.008Z,30
2017-06-14T03:10:54.006Z,30
2017-06-14T03:11:54.076Z,30
2017-06-14T03:12:54.113Z,30
2017-06-14T03:13:54.164Z,35
2017-06-14T03:14:54.158Z,35
2017-06-14T03:15:54.162Z,35
2017-06-14T03:16:54.216Z,35
2017-06-14T03:17:54.205Z,35
2017-06-14T03:18:54.270Z,40
2017-06-14T03:19:54.314Z,40
2017-06-14T03:20:54.323Z,40
2017-06-14T03:21:54.374Z,45
2017-06-14T03:22:54.389Z,45
2017-06-14T03:23:54.360Z,45
2017-06-14T03:24:54.472Z,45
2017-06-14T03:25:54.536Z,50
2017-06-14T03:26:54.566Z,50
2017-06-14T03:27:54.546Z,50
2017-06-14T03:28:54.589Z,50
2017-06-14T03:29:54.634Z,55
2017-06-14T03:30:54.678Z,55
2017-06-14T03:31:54.722Z,55
2017-06-14T03:32:54.747Z,60
2017-06-14T03:33:54.725Z,60
2017-06-14T03:34:54.807Z,60
2017-06-14T03:35:54.811Z,60
2017-06-14T03:36:54.862Z,65
2017-06-14T03:37:54.915Z,65
2017-06-14T03:38:54.909Z,65
2017-06-14T03:39:54.978Z,65
2017-06-14T03:40:55.007Z,70
2017-06-14T03:41:54.997Z,70
2017-06-14T03:42:55.100Z,70
2017-06-14T03:43:55.080Z,75
2017-06-14T03:44:55.116Z,75
2017-06-14T03:45:55.156Z,75
2017-06-14T03:46:55.201Z,75
2017-06-14T03:47:55.254Z,75
2017-06-14T03:48:55.243Z,80
2017-06-14T03:49:55.240Z,80
2017-06-14T03:50:55.265Z,85
2017-06-14T03:51:55.322Z,85
2017-06-14T03:52:55.350Z,90
2017-06-14T03:53:55.432Z,90
2017-06-14T03:54:55.397Z,90
2017-06-14T03:55:55.473Z,95
2017-06-14T03:56:55.517Z,95
2017-06-14T03:57:55.530Z,95
2017-06-14T03:58:55.518Z,100
2017-06-14T03:59:55.634Z,100
2017-06-14T04:00:55.653Z,100
2017-06-14T04:01:55.701Z,105
2017-06-14T04:02:55.729Z,105
2017-06-14T04:03:55.741Z,105
2017-06-14T04:04:55.816Z,110
2017-06-14T04:05:55.798Z,115
2017-06-14T04:06:55.834Z,120
2017-06-14T04:07:55.839Z,130
2017-06-14T04:08:55.923Z,140
2017-06-14T04:09:55.955Z,145
2017-06-14T04:10:55.979Z,170
2017-06-14T04:11:56.018Z,200
2017-06-14T04:12:56.014Z,285
2017-06-14T04:13:56.095Z,370
2017-06-14T04:14:56.129Z,430
2017-06-14T04:15:56.099Z,450
2017-06-14T04:16:56.148Z,385
2017-06-14T04:17:56.196Z,370
2017-06-14T04:18:56.247Z,385
2017-06-14T04:19:56.246Z,375
2017-06-14T04:20:56.280Z,365
2017-06-14T04:21:56.316Z,390
2017-06-14T04:22:56.322Z,595
2017-06-14T04:23:56.406Z,765
2017-06-14T04:24:56.416Z,890
2017-06-14T04:25:56.422Z,985
2017-06-14T04:26:56.535Z,1050
2017-06-14T04:27:56.564Z,1140
2017-06-14T04:28:56.722Z,610
2017-06-14T04:29:56.614Z,1270
2017-06-14T04:30:56.625Z,1085
2017-06-14T04:31:56.656Z,325
2017-06-14T04:32:56.758Z,270
2017-06-14T04:33:56.784Z,295
2017-06-14T04:34:56.796Z,275
2017-06-14T04:35:56.937Z,295
2017-06-14T04:36:56.864Z,450
2017-06-14T04:37:56.900Z,450
2017-06-14T04:38:56.970Z,340
2017-06-14T04:39:56.936Z,340
2017-06-14T04:40:56.969Z,325
2017-06-14T04:41:57.084Z,380
2017-06-14T04:42:57.046Z,485
2017-06-14T04:43:57.214Z,570
2017-06-14T04:44:57.180Z,1040
2017-06-14T04:45:57.218Z,920
2017-06-14T04:46:57.245Z,510
2017-06-14T04:47:57.252Z,520
2017-06-14T04:48:57.320Z,380
2017-06-14T04:49:57.347Z,390
2017-06-14T04:50:57.400Z,445
2017-06-14T04:51:57.395Z,605
2017-06-14T04:52:57.446Z,580
2017-06-14T04:53:57.456Z,420
2017-06-14T04:54:57.510Z,355
2017-06-14T04:55:57.558Z,340
2017-06-14T04:56:57.573Z,355
2017-06-14T04:57:57.678Z,335
2017-06-14T04:58:57.677Z,355
2017-06-14T04:59:57.697Z,505
2017-06-14T05:00:57.734Z,485
2017-06-14T05:01:57.844Z,340
2017-06-14T05:02:57.831Z,380
2017-06-14T05:03:57.891Z,385
2017-06-14T05:04:57.847Z,400
2017-06-14T05:05:57.946Z,445
2017-06-14T05:06:57.947Z,725
2017-06-14T05:07:57.980Z,980
2017-06-14T05:08:58.055Z,780
2017-06-14T05:09:58.038Z,305
2017-06-14T05:10:58.078Z,405
2017-06-14T05:11:58.167Z,470
2017-06-14T05:12:58.198Z,500
2017-06-14T05:13:58.294Z,910
2017-06-14T05:14:58.229Z,585
2017-06-14T05:15:58.435Z,1480
2017-06-14T05:16:58.321Z,1245
2017-06-14T05:17:58.348Z,1135
2017-06-14T05:18:58.364Z,735
2017-06-14T05:19:58.460Z,460
2017-06-14T05:20:58.587Z,390
2017-06-14T05:21:58.471Z,375
2017-06-14T05:22:58.575Z,385
2017-06-14T05:23:58.618Z,505
2017-06-14T05:24:58.637Z,350
2017-06-14T05:25:58.647Z,370
2017-06-14T05:26:58.711Z,340
2017-06-14T05:27:58.769Z,360
2017-06-14T05:28:58.769Z,325
2017-06-14T05:29:58.905Z,315
2017-06-14T05:30:58.874Z,405
2017-06-14T05:31:58.935Z,440
2017-06-14T05:32:58.934Z,390
2017-06-14T05:33:58.963Z,460
2017-06-14T05:34:58.996Z,420
2017-06-14T05:35:59.062Z,615
2017-06-14T05:36:59.081Z,525
2017-06-14T05:37:59.162Z,660
2017-06-14T05:38:59.151Z,610
2017-06-14T05:39:59.207Z,445
2017-06-14T05:40:59.221Z,420
2017-06-14T05:41:59.247Z,420
2017-06-14T05:42:59.337Z,405
2017-06-14T05:43:59.329Z,405
2017-06-14T05:44:59.425Z,415
2017-06-14T05:45:59.432Z,545
2017-06-14T05:46:59.478Z,730
2017-06-14T05:47:59.515Z,885
2017-06-14T05:48:59.570Z,590
2017-06-14T05:49:59.609Z,430
2017-06-14T05:50:59.631Z,400
2017-06-14T05:51:59.647Z,450
2017-06-14T05:52:59.692Z,385
2017-06-14T05:53:59.755Z,525
2017-06-14T05:54:59.709Z,580
2017-06-14T05:55:59.797Z,485
2017-06-14T05:56:59.831Z,445
2017-06-14T05:57:59.860Z,485
2017-06-14T05:58:59.948Z,445
2017-06-14T05:59:59.952Z,365
2017-06-14T06:00:59.967Z,345
2017-06-14T06:02:00.014Z,375
2017-06-14T06:03:00.020Z,410
2017-06-14T06:04:00.131Z,400
2017-06-14T06:05:00.131Z,660
2017-06-14T06:06:00.147Z,975
2017-06-14T06:07:00.203Z,620
2017-06-14T06:08:00.223Z,510
2017-06-14T06:09:00.271Z,540
2017-06-14T06:10:00.311Z,650
2017-06-14T06:11:00.412Z,790
2017-06-14T06:12:00.432Z,1505
2017-06-14T06:13:00.410Z,1655
2017-06-14T06:14:00.523Z,1790
2017-06-14T06:15:00.470Z,1550
2017-06-14T06:16:00.538Z,1390
2017-06-14T06:17:00.596Z,1690
2017-06-14T06:18:00.602Z,1860
2017-06-14T06:19:00.649Z,1965
2017-06-14T06:20:00.775Z,2060
2017-06-14T06:21:00.768Z,1865
2017-06-14T06:22:00.943Z,1855
2017-06-14T06:23:00.844Z,1750
2017-06-14T06:24:00.882Z,2020
2017-06-14T06:25:00.874Z,1960
2017-06-14T06:26:00.993Z,2230
2017-06-14T06:27:00.982Z,2270
2017-06-14T06:28:00.970Z,2300
2017-06-14T06:29:01.031Z,2275
2017-06-14T06:30:01.130Z,2100
2017-06-14T06:31:01.132Z,1705
2017-06-14T06:32:01.168Z,2265
2017-06-14T06:33:01.188Z,1995
2017-06-14T06:34:01.224Z,2100
2017-06-14T06:35:01.296Z,2265
2017-06-14T06:36:01.320Z,2295
2017-06-14T06:37:01.354Z,2350
2017-06-14T06:38:01.490Z,2340
2017-06-14T06:39:01.466Z,2250
2017-06-14T06:40:01.510Z,2280
2017-06-14T06:41:01.565Z,2275
2017-06-14T06:42:01.647Z,2340
2017-06-14T06:43:01.674Z,2435
2017-06-14T06:44:01.663Z,2405
2017-06-14T06:45:01.715Z,2550
2017-06-14T06:46:01.734Z,2445
2017-06-14T06:47:01.792Z,2450
2017-06-14T06:48:01.871Z,2535
2017-06-14T06:49:01.907Z,2420
2017-06-14T06:50:01.950Z,2325
2017-06-14T06:51:02.034Z,2395
2017-06-14T06:52:02.069Z,2410
2017-06-14T06:53:02.069Z,2430
2017-06-14T06:54:02.113Z,2605
2017-06-14T06:55:02.151Z,2505
2017-06-14T06:56:02.193Z,2345
2017-06-14T06:57:02.216Z,2315
2017-06-14T06:58:02.279Z,2265
2017-06-14T06:59:02.300Z,2365
2017-06-14T07:00:02.363Z,2365
2017-06-14T07:01:02.599Z,2275
2017-06-14T07:02:02.433Z,2285
2017-06-14T07:03:02.506Z,2310
2017-06-14T07:04:02.612Z,2305
2017-06-14T07:05:02.550Z,2360
2017-06-14T07:06:02.692Z,2490
2017-06-14T07:07:02.666Z,2565
2017-06-14T07:08:02.775Z,1935
2017-06-14T07:09:02.820Z,2630
2017-06-14T07:10:02.819Z,2540
2017-06-14T07:11:02.882Z,2250
2017-06-14T07:12:02.956Z,2360
2017-06-14T07:13:02.948Z,2610
2017-06-14T07:14:03.042Z,2675
2017-06-14T07:15:03.014Z,2885
2017-06-14T07:16:03.110Z,2460
2017-06-14T07:17:03.118Z,1080
2017-06-14T07:18:03.233Z,585
2017-06-14T07:19:03.232Z,2740
2017-06-14T07:20:03.388Z,775
2017-06-14T07:21:03.341Z,2880
2017-06-14T07:22:03.411Z,3065
2017-06-14T07:23:03.438Z,745
2017-06-14T07:24:03.526Z,570
2017-06-14T07:25:03.510Z,2900
2017-06-14T07:26:03.559Z,675
2017-06-14T07:27:03.606Z,2880
2017-06-14T07:28:03.669Z,2830
2017-06-14T07:29:03.711Z,780
2017-06-14T07:30:03.754Z,670
2017-06-14T07:31:03.744Z,2715
2017-06-14T07:32:03.855Z,2875
2017-06-14T07:33:03.882Z,970
2017-06-14T07:34:03.918Z,2110
2017-06-14T07:35:03.935Z,625
2017-06-14T07:36:03.995Z,635
2017-06-14T07:37:04.073Z,2880
2017-06-14T07:38:04.129Z,780
2017-06-14T07:39:04.135Z,2635
2017-06-14T07:40:04.243Z,2460
2017-06-14T07:41:04.211Z,655
2017-06-14T07:42:04.229Z,2755
2017-06-14T07:43:04.272Z,2830
2017-06-14T07:44:04.408Z,2720
2017-06-14T07:45:04.383Z,2525
2017-06-14T07:46:04.438Z,1865
2017-06-14T07:47:04.632Z,1030
2017-06-14T07:48:04.535Z,1420
2017-06-14T07:49:04.630Z,3100
2017-06-14T07:50:04.614Z,1880
2017-06-14T07:51:04.665Z,550
2017-06-14T07:52:04.696Z,445
2017-06-14T07:53:04.754Z,425
2017-06-14T07:54:05.036Z,380
2017-06-14T07:55:04.995Z,470
2017-06-14T07:56:04.918Z,740
2017-06-14T07:57:04.935Z,3225
2017-06-14T07:58:04.994Z,870
2017-06-14T07:59:05.087Z,3200
2017-06-14T08:00:05.066Z,620
2017-06-14T08:01:05.401Z,675
2017-06-14T08:02:05.128Z,580
2017-06-14T08:03:05.241Z,530
2017-06-14T08:04:05.263Z,500
2017-06-14T08:05:05.355Z,570
2017-06-14T08:06:05.356Z,600
2017-06-14T08:07:05.388Z,2195
2017-06-14T08:08:05.419Z,585
2017-06-14T08:09:05.420Z,450
2017-06-14T08:10:05.506Z,585
2017-06-14T08:11:05.550Z,3075
2017-06-14T08:12:05.578Z,3255
2017-06-14T08:13:05.626Z,3365
2017-06-14T08:14:05.695Z,1035
2017-06-14T08:15:05.693Z,3050
2017-06-14T08:16:05.710Z,2205
2017-06-14T08:17:05.779Z,3405
2017-06-14T08:18:05.876Z,3405
2017-06-14T08:19:05.848Z,755
2017-06-14T08:20:05.944Z,1815
2017-06-14T08:21:05.978Z,3070
2017-06-14T08:22:06.238Z,3310
2017-06-14T08:23:06.065Z,2975
2017-06-14T08:24:06.098Z,1835
2017-06-14T08:25:06.161Z,1235
2017-06-14T08:26:06.225Z,855
2017-06-14T08:27:06.210Z,760
2017-06-14T08:28:06.311Z,660
2017-06-14T08:29:06.383Z,470
2017-06-14T08:30:06.342Z,360
2017-06-14T08:31:06.443Z,325
2017-06-14T08:32:06.443Z,320
2017-06-14T08:33:06.528Z,340
2017-06-14T08:34:06.518Z,350
2017-06-14T08:35:06.577Z,365
2017-06-14T08:36:06.589Z,415
2017-06-14T08:37:06.593Z,485
2017-06-14T08:38:06.711Z,585
2017-06-14T08:39:06.822Z,685
2017-06-14T08:40:07.126Z,2025
2017-06-14T08:41:06.845Z,535
2017-06-14T08:42:06.904Z,430
2017-06-14T08:43:06.927Z,400
2017-06-14T08:44:06.949Z,470
2017-06-14T08:45:06.958Z,1050
2017-06-14T08:46:07.088Z,3950
2017-06-14T08:47:07.085Z,1120
2017-06-14T08:48:07.181Z,2220
2017-06-14T08:49:07.176Z,1405
2017-06-14T08:50:07.247Z,1400
2017-06-14T08:51:07.268Z,3870
2017-06-14T08:52:07.256Z,3295
2017-06-14T08:53:07.341Z,3755
2017-06-14T08:54:07.403Z,800
2017-06-14T08:55:07.524Z,670
2017-06-14T08:56:07.542Z,575
2017-06-14T08:57:07.503Z,475
2017-06-14T08:58:07.555Z,425
2017-06-14T08:59:07.638Z,410
2017-06-14T09:00:07.678Z,515
2017-06-14T09:01:10.743Z,755
2017-06-14T09:02:07.799Z,4105
2017-06-14T09:03:07.909Z,700
2017-06-14T09:04:07.814Z,4110
2017-06-14T09:05:07.956Z,4115
2017-06-14T09:06:07.937Z,4165
2017-06-14T09:07:07.968Z,4020
2017-06-14T09:08:07.973Z,1860
2017-06-14T09:09:08.144Z,2585
2017-06-14T09:10:08.021Z,965
2017-06-14T09:11:08.085Z,735
2017-06-14T09:12:08.167Z,3760
2017-06-14T09:13:08.181Z,1780
2017-06-14T09:14:08.285Z,1405
2017-06-14T09:15:08.350Z,1000
2017-06-14T09:16:08.406Z,680
2017-06-14T09:17:08.412Z,575
2017-06-14T09:18:08.500Z,470
2017-06-14T09:19:08.667Z,445
2017-06-14T09:20:08.493Z,570
2017-06-14T09:21:08.524Z,760
2017-06-14T09:22:08.601Z,800
2017-06-14T09:23:08.848Z,785
2017-06-14T09:24:08.697Z,3650
2017-06-14T09:25:08.701Z,700
2017-06-14T09:26:08.766Z,670
2017-06-14T09:27:08.853Z,1090
2017-06-14T09:28:08.890Z,2735
2017-06-14T09:29:08.871Z,1100
2017-06-14T09:30:08.912Z,700
2017-06-14T09:31:09.014Z,1810
2017-06-14T09:32:09.027Z,1765
2017-06-14T09:33:09.053Z,1655
2017-06-14T09:34:09.142Z,1625
2017-06-14T09:35:09.150Z,1630
2017-06-14T09:36:09.241Z,1760
2017-06-14T09:37:09.260Z,1930
2017-06-14T09:38:09.329Z,2030
2017-06-14T09:39:09.411Z,2135
2017-06-14T09:40:09.388Z,1385
2017-06-14T09:41:09.414Z,2445
2017-06-14T09:42:09.448Z,705
2017-06-14T09:43:09.492Z,2570
2017-06-14T09:44:09.572Z,1140
2017-06-14T09:45:09.669Z,735
2017-06-14T09:46:09.649Z,720
2017-06-14T09:47:09.724Z,775
2017-06-14T09:48:09.767Z,3050
2017-06-14T09:49:09.781Z,3010
2017-06-14T09:50:09.866Z,2845
2017-06-14T09:51:09.858Z,2760
2017-06-14T09:52:09.944Z,3020
2017-06-14T09:53:10.044Z,3185
2017-06-14T09:54:10.016Z,2955
2017-06-14T09:55:10.065Z,3025
2017-06-14T09:56:10.099Z,3265
2017-06-14T09:57:10.165Z,3180
2017-06-14T09:58:10.314Z,3095
2017-06-14T09:59:10.265Z,2615
2017-06-14T10:00:10.485Z,2225
2017-06-14T10:01:20.069Z,2415
2017-06-14T10:02:10.629Z,2835
2017-06-14T10:03:10.465Z,3420
2017-06-14T10:04:10.513Z,3420
2017-06-14T10:05:10.581Z,920
2017-06-14T10:06:10.623Z,3585
2017-06-14T10:07:10.679Z,2075
2017-06-14T10:08:10.733Z,3535
2017-06-14T10:09:10.803Z,3460
2017-06-14T10:10:10.831Z,3360
2017-06-14T10:11:10.865Z,3510
2017-06-14T10:12:10.916Z,3555
2017-06-14T10:13:10.940Z,3425
2017-06-14T10:14:11.020Z,3350
2017-06-14T10:15:11.038Z,3005
2017-06-14T10:16:11.122Z,2955
2017-06-14T10:17:11.173Z,2120
2017-06-14T10:18:11.186Z,2780
2017-06-14T10:19:11.276Z,1580
2017-06-14T10:20:11.335Z,3150
2017-06-14T10:21:11.362Z,3420
2017-06-14T10:22:11.403Z,3340
2017-06-14T10:23:11.409Z,3310
2017-06-14T10:24:11.529Z,3405
2017-06-14T10:25:11.561Z,3180
2017-06-14T10:26:11.636Z,3045
2017-06-14T10:27:11.626Z,950
2017-06-14T10:28:11.685Z,3275
2017-06-14T10:29:11.748Z,735
2017-06-14T10:30:11.990Z,3170
2017-06-14T10:31:11.890Z,3080
2017-06-14T10:32:11.877Z,3005
2017-06-14T10:33:12.009Z,3245
2017-06-14T10:34:12.015Z,3405
2017-06-14T10:35:11.985Z,2785
2017-06-14T10:36:12.027Z,1755
2017-06-14T10:37:12.172Z,1820
2017-06-14T10:38:12.153Z,2820
2017-06-14T10:39:12.208Z,2585
2017-06-14T10:40:12.298Z,765
2017-06-14T10:41:12.279Z,3020
2017-06-14T10:42:12.354Z,3315
2017-06-14T10:43:12.375Z,3385
2017-06-14T10:44:12.490Z,3165
2017-06-14T10:45:12.434Z,2950
2017-06-14T10:46:12.556Z,2760
2017-06-14T10:47:12.510Z,2610
2017-06-14T10:48:12.649Z,2520
2017-06-14T10:49:12.613Z,2490
2017-06-14T10:50:12.740Z,2660
2017-06-14T10:51:12.733Z,2905
2017-06-14T10:52:12.821Z,3090
2017-06-14T10:53:12.859Z,3075
2017-06-14T10:54:12.886Z,3095
2017-06-14T10:55:12.895Z,3040
2017-06-14T10:56:12.998Z,2810
2017-06-14T10:57:13.046Z,2770
2017-06-14T10:58:13.017Z,2925
2017-06-14T10:59:13.100Z,2960
2017-06-14T11:00:13.199Z,3055
2017-06-14T11:01:21.672Z,2775
2017-06-14T11:02:13.345Z,2330
2017-06-14T11:03:13.433Z,2025
2017-06-14T11:04:13.335Z,1970
2017-06-14T11:05:13.343Z,1980
2017-06-14T11:06:13.468Z,1715
2017-06-14T11:07:13.447Z,990
2017-06-14T11:08:13.477Z,570
2017-06-14T11:09:13.507Z,570
2017-06-14T11:10:13.563Z,480
2017-06-14T11:11:13.616Z,460
2017-06-14T11:12:13.627Z,440
2017-06-14T11:13:13.625Z,430
2017-06-14T11:14:13.938Z,410
2017-06-14T11:15:13.789Z,425
2017-06-14T11:16:13.794Z,455
2017-06-14T11:17:13.841Z,415
2017-06-14T11:18:14.110Z,415
2017-06-14T11:19:13.967Z,430
2017-06-14T11:20:13.978Z,450
2017-06-14T11:21:13.985Z,450
2017-06-14T11:22:14.103Z,460
2017-06-14T11:23:14.119Z,475
2017-06-14T11:24:14.123Z,470
2017-06-14T11:25:14.423Z,510
2017-06-14T11:26:14.272Z,495
2017-06-14T11:27:14.264Z,450
2017-06-14T11:28:14.346Z,395
2017-06-14T11:29:14.369Z,370
2017-06-14T11:30:14.384Z,345
2017-06-14T11:31:14.429Z,350
2017-06-14T11:32:14.433Z,345
2017-06-14T11:33:14.562Z,340
2017-06-14T11:34:14.563Z,350
2017-06-14T11:35:14.584Z,340
2017-06-14T11:36:14.652Z,320
2017-06-14T11:37:14.731Z,290
2017-06-14T11:38:14.828Z,305
2017-06-14T11:39:14.787Z,340
2017-06-14T11:40:14.787Z,310
2017-06-14T11:41:14.840Z,290
2017-06-14T11:42:14.834Z,270
2017-06-14T11:43:14.956Z,260
2017-06-14T11:44:14.963Z,250
2017-06-14T11:45:15.006Z,245
2017-06-14T11:46:15.000Z,235
2017-06-14T11:47:15.092Z,235
2017-06-14T11:48:15.116Z,235
2017-06-14T11:49:15.153Z,250
2017-06-14T11:50:15.245Z,255
2017-06-14T11:51:15.278Z,255
2017-06-14T11:52:15.317Z,315
2017-06-14T11:53:15.288Z,300
2017-06-14T11:54:15.371Z,380
2017-06-14T11:55:15.374Z,465
2017-06-14T11:56:15.458Z,495
2017-06-14T11:57:15.528Z,460
2017-06-14T11:58:15.587Z,465
2017-06-14T11:59:15.585Z,470
2017-06-14T12:00:15.646Z,485
2017-06-14T12:01:15.796Z,475
2017-06-14T12:02:15.739Z,435
2017-06-14T12:03:15.753Z,405
2017-06-14T12:04:15.776Z,395
2017-06-14T12:05:15.758Z,385
2017-06-14T12:06:15.857Z,395
2017-06-14T12:07:15.904Z,405
2017-06-14T12:08:15.953Z,425
2017-06-14T12:09:15.959Z,440
2017-06-14T12:10:16.020Z,440
2017-06-14T12:11:16.077Z,435
2017-06-14T12:12:16.096Z,395
2017-06-14T12:13:16.171Z,375
2017-06-14T12:14:16.198Z,350
2017-06-14T12:15:16.210Z,335
2017-06-14T12:16:16.217Z,335
2017-06-14T12:17:16.299Z,360
2017-06-14T12:18:16.328Z,405
2017-06-14T12:19:16.350Z,420
2017-06-14T12:20:16.486Z,445
2017-06-14T12:21:16.448Z,455
2017-06-14T12:22:16.495Z,415
2017-06-14T12:23:16.539Z,370
2017-06-14T12:24:16.579Z,355
2017-06-14T12:25:16.609Z,325
2017-06-14T12:26:16.657Z,320
2017-06-14T12:27:16.710Z,290
2017-06-14T12:28:16.714Z,265
2017-06-14T12:29:16.736Z,250
2017-06-14T12:30:16.827Z,240
2017-06-14T12:31:16.849Z,240
2017-06-14T12:32:16.836Z,230
2017-06-14T12:33:16.917Z,225
2017-06-14T12:34:16.959Z,225
2017-06-14T12:35:17.055Z,225
2017-06-14T12:36:17.016Z,260
2017-06-14T12:37:17.075Z,305
2017-06-14T12:38:17.136Z,310
2017-06-14T12:39:17.157Z,310
2017-06-14T12:40:17.151Z,290
2017-06-14T12:41:17.236Z,275
2017-06-14T12:42:17.265Z,285
2017-06-14T12:43:17.264Z,290
2017-06-14T12:44:17.483Z,280
2017-06-14T12:45:17.387Z,275
2017-06-14T12:46:17.406Z,245
2017-06-14T12:47:17.463Z,255
2017-06-14T12:48:17.530Z,245
2017-06-14T12:49:17.544Z,225
2017-06-14T12:50:17.577Z,215
2017-06-14T12:51:17.580Z,205
2017-06-14T12:52:17.658Z,205
2017-06-14T12:53:17.689Z,210
2017-06-14T12:54:17.706Z,220
2017-06-14T12:55:17.768Z,245
2017-06-14T12:56:17.929Z,260
2017-06-14T12:57:17.843Z,255
2017-06-14T12:58:17.906Z,255
2017-06-14T12:59:17.877Z,260
2017-06-14T13:00:18.049Z,275
2017-06-14T13:01:18.164Z,265
2017-06-14T13:02:18.040Z,260
2017-06-14T13:03:18.066Z,275
2017-06-14T13:04:18.145Z,245
2017-06-14T13:05:18.196Z,220
2017-06-14T13:06:18.275Z,215
2017-06-14T13:07:18.254Z,225
2017-06-14T13:08:18.284Z,215
2017-06-14T13:09:18.356Z,210
2017-06-14T13:10:18.387Z,200
2017-06-14T13:11:18.331Z,210
2017-06-14T13:12:18.457Z,200
2017-06-14T13:13:18.501Z,205
2017-06-14T13:14:18.533Z,195
2017-06-14T13:15:18.560Z,195
2017-06-14T13:16:18.614Z,185
2017-06-14T13:17:18.687Z,185
2017-06-14T13:18:18.686Z,190
2017-06-14T13:19:18.702Z,165
2017-06-14T13:20:18.743Z,185
2017-06-14T13:21:18.802Z,170
2017-06-14T13:22:18.832Z,180
2017-06-14T13:23:18.902Z,175
2017-06-14T13:24:18.880Z,175
2017-06-14T13:25:18.952Z,170
2017-06-14T13:26:19.028Z,170
2017-06-14T13:27:19.251Z,175
2017-06-14T13:28:19.056Z,175
2017-06-14T13:29:19.089Z,175
2017-06-14T13:30:19.115Z,175
2017-06-14T13:31:19.183Z,170
2017-06-14T13:32:19.385Z,165
2017-06-14T13:33:19.314Z,155
2017-06-14T13:34:19.406Z,165
2017-06-14T13:35:19.391Z,160
2017-06-14T13:36:19.419Z,160
2017-06-14T13:37:19.374Z,160
2017-06-14T13:38:19.430Z,155
2017-06-14T13:39:19.454Z,155
2017-06-14T13:40:19.500Z,155
2017-06-14T13:41:19.566Z,155
2017-06-14T13:42:19.566Z,150
2017-06-14T13:43:19.591Z,150
2017-06-14T13:44:19.723Z,150
2017-06-14T13:45:19.706Z,150
2017-06-14T13:46:19.778Z,150
2017-06-14T13:47:19.824Z,150
2017-06-14T13:48:19.826Z,145
2017-06-14T13:49:19.920Z,150
2017-06-14T13:50:19.884Z,150
2017-06-14T13:51:20.023Z,145
2017-06-14T13:52:19.982Z,145
2017-06-14T13:53:19.984Z,145